Time;durP1;ratioP1;P1;durP2;ratioP2;P2;SDS_P1;SDS_P2;PMS_P1;PMS_P2;Temp;Humidity;BMP_temperature;BMP_pressure;BME280_temperature;BME280_humidity;BME280_pressure;Samples;Min_cycle;Max_cycle;Signal;HPM_P1;HPM_P2
2023/12/15 00:58:36;;;;;;;1.23;1.10;;;;;;;7.76;59.62;100042.62;5364719;26;20868;-93
2023/12/15 01:01:40;;;;;;;;;;;;;;;;;;;;;
2023/12/15 01:07:53;;;;;;;;;;;;;;;;;;;;;
2023/12/15 01:14:38;;;;;;;;;;;;;;;;;;;;;
2023/12/15 01:21:16;;;;;;;;;;;;;;;;;;;;;
2023/12/15 01:24:50;;;;;;;;;;;;;;;;;;;;;
2023/12/15 01:28:05;;;;;;;0.73;0.73;;;;;;;7.51;59.60;100075.81;5198104;27;20070;-93
2023/12/15 01:31:15;;;;;;;;;;;;;;;;;;;;;
2023/12/15 01:37:43;;;;;;;;;;;;;;;;;;;;;
2023/12/15 01:41:02;;;;;;;4.85;2.35;;;;;;;7.42;59.59;100088.06;5201112;27;34824;-93
2023/12/15 01:43:44;;;;;;;;;;;;;;;;;;;;;
2023/12/15 01:46:46;;;;;;;;;;;;;;;;;;;;;
2023/12/15 01:49:34;;;;;;;1.50;1.40;;;;;;;7.65;59.60;100102.41;5283402;27;34982;-93
2023/12/15 01:52:26;;;;;;;;;;;;;;;;;;;;;
2023/12/15 01:58:50;;;;;;;;;;;;;;;;;;;;;
2023/12/15 02:01:36;;;;;;;0.80;0.70;;;;;;;7.64;59.60;100100.69;5361398;26;36301;-95
2023/12/15 02:04:25;;;;;;;;;;;;;;;;;;;;;
2023/12/15 02:07:44;;;;;;;;;;;;;;;;;;;;;
2023/12/15 02:10:17;;;;;;;5.43;1.90;;;;;;;7.54;59.59;100103.41;5368873;26;35143;-95
2023/12/15 02:13:26;;;;;;;3.03;0.88;;;;;;;7.58;59.59;100105.97;5311902;26;20064;-96
2023/12/15 02:16:02;;;;;;;5.28;2.47;;;;;;;7.43;59.59;100111.34;5334471;26;20071;-95
2023/12/15 02:18:32;;;;;;;2.17;1.70;;;;;;;7.43;59.59;100108.75;5315165;26;20055;-95
2023/12/15 02:21:13;;;;;;;0.70;0.45;;;;;;;7.59;59.60;100106.81;5331969;26;20056;-95
2023/12/15 02:27:07;;;;;;;2.87;1.60;;;;;;;7.53;59.59;100114.66;5360192;26;20058;-95
2023/12/15 02:29:35;;;;;;;1.17;1.08;;;;;;;7.66;59.60;100116.22;5312359;26;20071;-94
2023/12/15 02:32:17;;;;;;;0.98;0.68;;;;;;;7.66;59.60;100106.69;5312546;26;20430;-94
2023/12/15 02:34:50;;;;;;;0.68;0.65;;;;;;;7.60;59.59;100109.38;5330423;26;20721;-94
2023/12/15 02:37:34;;;;;;;;;;;;;;;;;;;;;
2023/12/15 02:40:28;;;;;;;1.65;1.55;;;;;;;7.70;59.61;100117.88;5335991;26;34474;-96
2023/12/15 02:43:03;;;;;;;0.40;0.40;;;;;;;7.74;59.61;100121.28;5330683;26;20029;-93
2023/12/15 02:45:33;;;;;;;1.95;0.60;;;;;;;7.93;59.62;100123.56;5312773;26;20064;-95
2023/12/15 02:47:59;;;;;;;5.37;3.25;;;;;;;7.85;59.62;100134.94;5311724;26;20066;-95
2023/12/15 02:50:24;;;;;;;0.95;0.95;;;;;;;8.08;59.63;100125.06;5329239;26;20051;-94
2023/12/15 02:52:52;;;;;;;8.77;1.10;;;;;;;8.09;59.63;100131.97;5311371;26;20635;-94
2023/12/15 02:55:31;;;;;;;1.65;1.55;;;;;;;7.95;59.62;100131.31;5330297;26;20020;-95
2023/12/15 02:58:10;;;;;;;8.98;2.40;;;;;;;7.85;59.61;100137.53;5330330;26;20416;-95
2023/12/15 03:00:52;;;;;;;5.07;1.87;;;;;;;7.63;59.61;100134.38;5314400;26;20062;-95
2023/12/15 03:06:42;;;;;;;0.73;0.60;;;;;;;7.96;59.62;100139.06;5368575;26;20059;-95
2023/12/15 03:53:50;;;;;;;;;;;;;;;;;;;;;
2023/12/15 04:00:43;;;;;;;;;;;;;;;;;;;;;
2023/12/15 04:14:15;;;;;;;0.37;0.37;;;;;;;7.53;59.59;100221.72;4953486;28;20077;-93
2023/12/15 04:16:41;;;;;;;0.30;0.30;;;;;;;7.41;59.59;100226.19;5057833;27;20068;-94
2023/12/15 04:19:06;;;;;;;2.08;1.98;;;;;;;7.40;59.59;100227.94;5240807;27;20061;-93
2023/12/15 04:21:34;;;;;;;2.10;0.95;;;;;;;7.43;59.59;100224.44;5242638;27;20143;-93
2023/12/15 04:23:59;;;;;;;0.37;0.37;;;;;;;7.40;59.59;100227.94;5241975;27;20064;-94
2023/12/15 04:26:25;;;;;;;1.65;1.45;;;;;;;7.28;59.58;100236.69;5277255;27;20314;-93
2023/12/15 04:28:51;;;;;;;1.42;1.33;;;;;;;7.33;59.59;100239.22;5241984;27;20057;-93
2023/12/15 04:31:16;;;;;;;1.65;1.55;;;;;;;7.18;59.58;100249.75;5241811;27;20064;-93
2023/12/15 04:33:42;;;;;;;1.35;1.27;;;;;;;7.30;59.58;100255.66;5242028;27;20057;-92
2023/12/15 04:36:08;;;;;;;1.95;1.73;;;;;;;7.26;59.58;100251.38;5241926;27;20084;-94
2023/12/15 04:38:56;;;;;;;6.45;4.40;;;;;;;7.23;59.57;100259.19;5243289;27;20124;-94
2023/12/15 04:41:36;;;;;;;5.30;2.28;;;;;;;7.19;59.58;100269.59;5251666;27;20074;-93
2023/12/15 04:44:16;;;;;;;;;;;;;;;;;;;;;
2023/12/15 04:46:55;;;;;;;;;;;;;;;;;;;;;
2023/12/15 04:52:32;;;;;;;1.00;0.93;;;;;;;7.38;59.58;100281.47;5242523;27;20342;-95
2023/12/15 04:58:28;;;;;;;2.83;0.95;;;;;;;7.24;59.58;100291.97;5293067;27;20077;-95
2023/12/15 05:02:02;;;;;;;;;;;;;;;;;;;;;
2023/12/15 05:04:54;;;;;;;0.30;0.30;;;;;;;7.51;59.60;100296.00;5301360;27;35215;-93
2023/12/15 05:07:29;;;;;;;0.90;0.90;;;;;;;7.32;59.58;100292.72;5230188;27;20101;-94
2023/12/15 05:10:18;;;;;;;4.20;1.27;;;;;;;7.08;59.57;100304.19;5282317;27;20048;-94
2023/12/15 05:13:02;;;;;;;1.90;1.58;;;;;;;7.09;59.57;100300.72;5264275;27;20049;-94
2023/12/15 05:15:33;;;;;;;0.85;0.85;;;;;;;7.05;59.57;100296.44;5267466;27;20029;-95
2023/12/15 05:18:21;;;;;;;0.10;0.10;;;;;;;7.07;59.56;100299.03;5264047;27;20049;-94
2023/12/15 05:20:49;;;;;;;1.00;0.80;;;;;;;7.17;59.57;100311.03;5281990;27;20045;-92
2023/12/15 05:23:17;;;;;;;0.57;0.57;;;;;;;7.21;59.58;100309.25;5263999;27;20085;-92
2023/12/15 05:25:43;;;;;;;0.17;0.17;;;;;;;7.21;59.57;100317.03;5282978;27;20057;-93
2023/12/15 05:28:13;;;;;;;0.88;0.88;;;;;;;7.08;59.56;100326.62;5264492;27;20060;-94
2023/12/15 06:02:50;;;;;;;0.82;0.62;;;;;;;7.38;59.59;100379.91;5200111;27;20042;-95
2023/12/15 06:12:27;;;;;;;0.45;0.28;;;;;;;7.68;59.60;100395.12;5161122;27;20145;-95
2023/12/15 06:15:14;;;;;;;0.70;0.70;;;;;;;7.32;59.58;100398.91;5127197;27;20066;-94
2023/12/15 06:17:53;;;;;;;;;;;;;;;;;;;;;
2023/12/15 06:20:51;;;;;;;0.00;0.00;;;;;;;7.16;59.57;100415.47;5202597;27;34797;-95
2023/12/15 06:23:27;;;;;;;0.28;0.13;;;;;;;7.05;59.57;100420.69;5215778;27;20034;-93
2023/12/15 06:26:22;;;;;;;0.35;0.32;;;;;;;7.25;59.58;100437.81;5194446;27;20067;-94
2023/12/15 06:29:15;;;;;;;0.08;0.08;;;;;;;7.30;59.58;100438.66;5187352;27;20094;-96
2023/12/15 06:31:47;;;;;;;0.35;0.35;;;;;;;7.31;59.58;100441.22;5273119;27;20049;-92
2023/12/15 06:34:25;;;;;;;;;;;;;;;;;;;;;
2023/12/15 06:36:51;;;;;;;1.17;1.15;;;;;;;7.18;59.58;100442.19;5265949;27;35389;-93
2023/12/15 06:39:19;;;;;;;0.10;0.10;;;;;;;7.25;59.58;100453.38;5245982;27;20084;-93
2023/12/15 06:41:52;;;;;;;0.40;0.40;;;;;;;7.34;59.59;100453.31;5245805;27;20164;-93
2023/12/15 06:44:22;;;;;;;0.00;0.00;;;;;;;7.27;59.58;100457.66;5265069;27;20083;-93
2023/12/15 06:46:48;;;;;;;0.17;0.17;;;;;;;7.27;59.58;100467.16;5248475;27;20069;-93
2023/12/15 06:49:24;;;;;;;;;;;;;;;;;;;;;
2023/12/15 06:51:56;;;;;;;0.00;0.00;;;;;;;7.14;59.57;100471.56;5282951;27;36856;-93
2023/12/15 06:54:21;;;;;;;0.00;0.00;;;;;;;7.11;59.57;100483.69;5249302;27;20061;-93
2023/12/15 06:56:49;;;;;;;0.32;0.32;;;;;;;7.05;59.57;100488.00;5285758;27;20060;-93
2023/12/15 06:59:17;;;;;;;0.45;0.45;;;;;;;7.20;59.58;100502.59;5267083;27;20829;-94
2023/12/15 07:01:43;;;;;;;1.05;1.00;;;;;;;7.06;59.57;100505.25;5267289;27;20069;-93
2023/12/15 07:04:08;;;;;;;0.65;0.65;;;;;;;7.01;59.56;100513.91;5266854;27;20093;-92
2023/12/15 07:06:34;;;;;;;0.47;0.47;;;;;;;7.03;59.57;100514.75;5281809;27;20112;-92
2023/12/15 07:08:59;;;;;;;0.20;0.20;;;;;;;7.00;59.56;100533.78;5263580;27;20088;-94
2023/12/15 07:11:25;;;;;;;0.95;0.77;;;;;;;7.13;59.57;100532.00;5264084;27;20053;-93
2023/12/15 07:13:50;;;;;;;0.30;0.30;;;;;;;7.33;59.58;100537.03;5263295;27;20446;-93
2023/12/15 07:16:16;;;;;;;1.20;0.43;;;;;;;7.30;59.58;100537.91;5263837;27;20056;-92
2023/12/15 07:18:46;;;;;;;0.28;0.28;;;;;;;7.30;59.58;100539.63;5263289;27;20083;-92
2023/12/15 07:21:11;;;;;;;0.28;0.28;;;;;;;7.49;59.59;100541.25;5264716;27;20049;-92
2023/12/15 07:23:37;;;;;;;0.75;0.57;;;;;;;7.26;59.58;100543.97;5263829;27;20064;-93
2023/12/15 07:26:04;;;;;;;1.12;0.93;;;;;;;7.35;59.59;100540.50;5263839;27;20064;-92
2023/12/15 07:28:29;;;;;;;0.10;0.10;;;;;;;7.35;59.59;100548.25;5263796;27;20833;-93
2023/12/15 07:30:55;;;;;;;0.32;0.20;;;;;;;7.31;59.58;100557.75;5263269;27;20104;-93
2023/12/15 07:33:20;;;;;;;0.13;0.13;;;;;;;7.28;59.58;100560.38;5263771;27;20402;-93
2023/12/15 07:35:46;;;;;;;0.00;0.00;;;;;;;7.21;59.58;100563.00;5264178;27;20687;-93
2023/12/15 07:38:11;;;;;;;1.45;0.68;;;;;;;7.35;59.59;100566.41;5263972;27;20062;-92
2023/12/15 07:40:37;;;;;;;0.43;0.25;;;;;;;7.46;59.58;100582.72;5264181;27;20100;-92
2023/12/15 07:43:02;;;;;;;0.57;0.22;;;;;;;7.44;59.59;100576.69;5263671;27;20307;-92
2023/12/15 07:45:27;;;;;;;0.57;0.57;;;;;;;7.42;59.59;100583.59;5264038;27;20121;-92
2023/12/15 07:47:54;;;;;;;0.37;0.37;;;;;;;7.59;59.60;100586.97;5265095;27;20096;-90
2023/12/15 07:50:21;;;;;;;0.05;0.05;;;;;;;7.56;59.60;100586.97;5265299;27;20116;-93
2023/12/15 07:52:47;;;;;;;1.27;0.65;;;;;;;7.61;59.61;100598.19;5264127;27;20041;-92
2023/12/15 07:55:12;;;;;;;0.00;0.00;;;;;;;7.74;59.61;100600.66;5317975;27;20347;-92
2023/12/15 07:57:39;;;;;;;0.17;0.17;;;;;;;7.61;59.60;100610.28;5263369;27;20096;-92
2023/12/15 08:00:09;;;;;;;2.50;1.55;;;;;;;7.84;59.62;100613.56;5263782;27;20116;-92
2023/12/15 08:02:35;;;;;;;0.00;0.00;;;;;;;7.84;59.60;100617.91;5264409;27;20061;-91
2023/12/15 08:05:00;;;;;;;0.47;0.47;;;;;;;7.86;59.62;100622.19;5263529;27;20081;-92
2023/12/15 08:07:25;;;;;;;0.00;0.00;;;;;;;7.77;59.60;100621.38;5263373;27;20057;-92
2023/12/15 08:09:51;;;;;;;0.08;0.08;;;;;;;7.91;59.61;100635.12;5263472;27;20158;-91
2023/12/15 08:13:09;;;;;;;0.05;0.05;;;;;;;7.66;59.60;100630.09;5299684;27;20442;-93
2023/12/15 08:15:35;;;;;;;0.10;0.10;;;;;;;7.43;59.59;100644.03;5282603;27;20072;-93
2023/12/15 08:18:00;;;;;;;0.50;0.50;;;;;;;7.40;59.59;100655.28;5263328;27;20659;-92
2023/12/15 08:20:26;;;;;;;0.05;0.05;;;;;;;7.54;59.59;100661.25;5281392;27;20050;-92
2023/12/15 08:22:51;;;;;;;0.20;0.20;;;;;;;7.57;59.60;100661.25;5263330;27;20065;-92
2023/12/15 08:25:17;;;;;;;0.62;0.62;;;;;;;7.43;59.59;100667.34;5263571;27;20120;-93
2023/12/15 08:27:42;;;;;;;0.00;0.00;;;;;;;7.33;59.58;100669.09;5281407;27;20100;-93
2023/12/15 08:30:08;;;;;;;0.32;0.32;;;;;;;7.53;59.59;100672.47;5263123;27;20053;-93
2023/12/15 08:32:34;;;;;;;0.10;0.10;;;;;;;7.59;59.59;100666.44;5299896;27;20068;-93
2023/12/15 08:34:59;;;;;;;0.17;0.17;;;;;;;7.61;59.59;100670.72;5263470;27;20151;-93
2023/12/15 08:37:35;;;;;;;0.98;0.45;;;;;;;7.53;59.59;100676.78;5263666;27;20057;-93
2023/12/15 08:40:00;;;;;;;0.80;0.80;;;;;;;7.55;59.60;100675.91;5263675;27;20054;-92
2023/12/15 08:42:26;;;;;;;0.75;0.75;;;;;;;7.58;59.60;100686.28;5263192;27;20062;-93
2023/12/15 08:44:54;;;;;;;0.10;0.10;;;;;;;7.27;59.58;100695.03;5263517;27;20053;-94
2023/12/15 08:47:27;;;;;;;0.73;0.73;;;;;;;7.22;59.57;100708.00;5263606;27;20057;-94
2023/12/15 08:49:55;;;;;;;1.42;0.25;;;;;;;7.27;59.58;100710.56;5265671;27;20081;-91
2023/12/15 08:52:21;;;;;;;0.00;0.00;;;;;;;7.41;59.59;100716.59;5281325;27;20124;-92
2023/12/15 08:54:46;;;;;;;2.08;1.87;;;;;;;7.52;59.59;100712.19;5280395;27;20151;-93
2023/12/15 08:57:16;;;;;;;0.20;0.20;;;;;;;7.36;59.59;100714.00;5262463;27;20057;-92
2023/12/15 08:59:42;;;;;;;;;;;;;;;7.23;59.57;100719.22;5264061;27;20044;-93
2023/12/15 09:02:08;;;;;;;1.45;0.57;;;;;;;7.38;59.58;100725.22;5281378;27;19986;-93
2023/12/15 09:04:34;;;;;;;0.37;0.20;;;;;;;7.43;59.59;100732.13;5263131;27;20057;-93
2023/12/15 09:06:59;;;;;;;7.68;0.98;;;;;;;7.57;59.60;100743.25;5262507;27;20056;-93
2023/12/15 09:09:25;;;;;;;0.00;0.00;;;;;;;7.43;59.59;100751.09;5262793;27;20352;-93
2023/12/15 09:11:51;;;;;;;0.40;0.40;;;;;;;7.54;59.59;100751.91;5262510;27;20068;-92
2023/12/15 09:14:17;;;;;;;4.57;0.88;;;;;;;7.50;59.60;100755.37;5280711;27;20061;-92
2023/12/15 09:16:43;;;;;;;0.00;0.00;;;;;;;7.58;59.60;100768.34;5262445;27;20062;-93
2023/12/15 09:19:08;;;;;;;0.10;0.10;;;;;;;7.75;59.61;100769.13;5262803;27;20053;-96
2023/12/15 09:21:34;;;;;;;1.23;0.68;;;;;;;7.72;59.61;100773.44;5262077;27;20071;-93
2023/12/15 09:23:59;;;;;;;0.00;0.00;;;;;;;7.76;59.60;100776.03;5263071;27;20429;-91
2023/12/15 09:26:27;;;;;;;0.98;0.43;;;;;;;7.68;59.60;100765.69;5263506;27;20056;-92
2023/12/15 09:28:53;;;;;;;0.20;0.20;;;;;;;7.63;59.60;100770.03;5263428;27;20151;-91
2023/12/15 09:31:19;;;;;;;7.55;1.87;;;;;;;7.61;59.59;100779.56;5263425;27;20112;-93
2023/12/15 09:33:44;;;;;;;0.20;0.20;;;;;;;7.77;59.60;100779.47;5280560;27;20543;-93
2023/12/15 09:36:12;;;;;;;0.77;0.77;;;;;;;7.76;59.60;100788.97;5281664;27;20136;-95
2023/12/15 09:38:37;;;;;;;0.00;0.00;;;;;;;7.93;59.62;100792.38;5262793;27;20403;-91
2023/12/15 09:41:13;;;;;;;;;;;;;;;;;;;;;
2023/12/15 09:43:41;;;;;;;0.62;0.62;;;;;;;8.17;59.63;100803.50;5282607;27;36857;-93
2023/12/15 09:46:12;;;;;;;0.93;0.35;;;;;;;8.19;59.63;100802.59;5263291;27;20071;-92
2023/12/15 09:48:43;;;;;;;0.00;0.00;;;;;;;8.17;59.63;100808.69;5265034;27;20469;-94
2023/12/15 09:51:12;;;;;;;0.43;0.43;;;;;;;8.05;59.62;100808.75;5264811;27;20418;-91
2023/12/15 09:53:48;;;;;;;;;;;;;;;;;;;;;
2023/12/15 09:56:18;;;;;;;0.45;0.30;;;;;;;8.15;59.63;100813.88;5281838;27;34678;-93
2023/12/15 09:58:47;;;;;;;0.68;0.68;;;;;;;8.05;59.62;100808.75;5300385;27;20102;-94
2023/12/15 10:01:18;;;;;;;0.20;0.20;;;;;;;7.86;59.62;100819.19;5282492;27;20068;-94
2023/12/15 10:03:57;;;;;;;0.00;0.00;;;;;;;8.08;59.63;100814.78;5265409;27;20061;-93
2023/12/15 10:06:46;;;;;;;0.00;0.00;;;;;;;8.05;59.62;100817.41;5265485;27;20057;-92
2023/12/15 10:09:36;;;;;;;0.00;0.00;;;;;;;8.00;59.62;100826.91;5268225;27;20444;-93
2023/12/15 10:16:00;;;;;;;0.00;0.00;;;;;;;7.98;59.62;100836.41;5294105;27;20771;-94
2023/12/15 10:18:43;;;;;;;0.65;0.65;;;;;;;8.09;59.62;100834.66;5299209;27;20045;-95
2023/12/15 10:21:31;;;;;;;;;;;;;;;;;;;;;
2023/12/15 10:24:38;;;;;;;0.98;0.98;;;;;;;8.12;59.62;100847.59;5282041;27;37129;-95
2023/12/15 10:34:08;;;;;;;37.90;2.03;;;;;;;8.34;59.64;100850.13;5298754;27;20128;-92
2023/12/15 10:36:44;;;;;;;;;;;;;;;;;;;;;
2023/12/15 10:39:10;;;;;;;0.45;0.32;;;;;;;8.42;59.64;100849.22;5331943;26;34943;-93
2023/12/15 10:42:09;;;;;;;0.65;0.28;;;;;;;8.52;59.65;100858.69;5310880;26;20052;-93
2023/12/15 10:44:50;;;;;;;1.70;1.08;;;;;;;8.65;59.65;100856.00;5342392;26;20048;-94
2023/12/15 10:47:15;;;;;;;5.32;0.93;;;;;;;8.79;59.66;100860.22;5313627;26;20064;-93
2023/12/15 10:49:52;;;;;;;0.10;0.10;;;;;;;8.83;59.67;100855.88;5311260;26;20090;-93
2023/12/15 10:52:32;;;;;;;1.00;0.75;;;;;;;8.95;59.67;100865.28;5330823;26;20095;-93
2023/12/15 10:55:20;;;;;;;2.50;0.90;;;;;;;8.78;59.67;100860.25;5311914;26;20788;-94
2023/12/15 10:57:46;;;;;;;0.35;0.30;;;;;;;9.02;59.67;100867.00;5310403;26;20068;-93
2023/12/15 11:00:17;;;;;;;1.65;0.98;;;;;;;9.04;59.68;100862.66;5308047;26;20056;-94
2023/12/15 11:02:52;;;;;;;1.48;1.27;;;;;;;9.03;59.67;100866.12;5290322;26;20056;-94
2023/12/15 11:05:36;;;;;;;2.17;1.27;;;;;;;9.00;59.67;100876.53;5307169;26;20076;-94
2023/12/15 11:08:04;;;;;;;0.57;0.57;;;;;;;9.01;59.67;100866.12;5292653;26;20732;-92
2023/12/15 11:10:35;;;;;;;0.98;0.62;;;;;;;9.17;59.68;100877.25;5308439;26;20123;-92
2023/12/15 11:13:46;;;;;;;1.37;1.27;;;;;;;9.20;59.69;100874.59;5288874;26;20120;-94
2023/12/15 11:16:19;;;;;;;2.08;1.00;;;;;;;9.34;59.70;100872.75;5344104;26;20024;-94
2023/12/15 11:19:01;;;;;;;;;;;;;;;;;;;;;
2023/12/15 11:21:53;;;;;;;0.20;0.20;;;;;;;9.51;59.70;100888.22;5310785;26;34637;-94
2023/12/15 11:24:24;;;;;;;2.33;0.28;;;;;;;9.60;59.71;100888.09;5320196;26;20084;-93
2023/12/15 11:26:53;;;;;;;0.00;0.00;;;;;;;9.47;59.70;100897.78;5308249;26;20048;-93
2023/12/15 11:29:20;;;;;;;0.60;0.60;;;;;;;9.43;59.71;100900.41;5326576;26;20056;-93
2023/12/15 11:32:11;;;;;;;0.00;0.00;;;;;;;9.16;59.68;100912.75;5307724;26;20140;-94
2023/12/15 11:34:37;;;;;;;1.95;1.00;;;;;;;9.13;59.69;100902.38;5295149;26;20052;-92
2023/12/15 11:37:02;;;;;;;0.30;0.28;;;;;;;9.35;59.70;100897.87;5289840;26;20439;-93
2023/12/15 11:39:41;;;;;;;;;;;;;;;;;;;;;
2023/12/15 11:42:51;;;;;;;;;;;;;;;;;;;;;
2023/12/15 11:45:31;;;;;;;;;;;;;;;;;;;;;
2023/12/15 11:47:57;;;;;;;8.80;1.42;;;;;;;9.21;59.69;100910.97;5309672;26;36799;-93
2023/12/15 11:50:35;;;;;;;0.00;0.00;;;;;;;9.36;59.70;100902.19;5289944;26;20083;-93
2023/12/15 11:53:22;;;;;;;2.83;1.80;;;;;;;9.32;59.69;100904.84;5308656;26;20083;-92
2023/12/15 11:55:51;;;;;;;0.30;0.30;;;;;;;9.30;59.69;100904.84;5290829;26;20917;-93
2023/12/15 11:58:18;;;;;;;0.90;0.73;;;;;;;9.26;59.70;100905.75;5292570;26;20053;-94
2023/12/15 12:00:44;;;;;;;0.08;0.08;;;;;;;9.36;59.70;100909.13;5290148;26;20068;-93
2023/12/15 12:03:16;;;;;;;0.00;0.00;;;;;;;9.35;59.70;100903.06;5289255;26;20112;-93
2023/12/15 12:05:53;;;;;;;2.62;2.37;;;;;;;9.25;59.68;100903.16;5289897;26;20067;-93
2023/12/15 12:08:22;;;;;;;1.02;0.55;;;;;;;9.20;59.69;100913.56;5291787;26;20048;-93
2023/12/15 12:10:59;;;;;;;1.00;0.95;;;;;;;9.08;59.68;100917.16;5289956;26;20121;-93
2023/12/15 12:13:32;;;;;;;0.10;0.10;;;;;;;9.33;59.69;100920.41;5292237;26;20039;-94
2023/12/15 12:16:01;;;;;;;0.28;0.28;;;;;;;9.30;59.69;100925.63;5289632;26;20083;-93
2023/12/15 12:18:30;;;;;;;1.02;1.00;;;;;;;9.40;59.69;100919.47;5288771;26;20128;-93
2023/12/15 12:21:04;;;;;;;2.62;0.98;;;;;;;9.21;59.69;100923.09;5289953;26;20124;-92
2023/12/15 12:23:30;;;;;;;0.43;0.43;;;;;;;9.29;59.69;100928.25;5289677;26;20749;-93
2023/12/15 12:25:58;;;;;;;6.45;1.80;;;;;;;9.19;59.69;100925.72;5288727;26;20402;-92
2023/12/15 12:28:56;;;;;;;0.10;0.10;;;;;;;9.21;59.69;100933.47;5289112;26;20129;-93
2023/12/15 12:31:46;;;;;;;0.15;0.15;;;;;;;9.03;59.67;100941.44;5321454;26;20131;-94
2023/12/15 12:34:14;;;;;;;0.00;0.00;;;;;;;9.09;59.68;100951.78;5325627;26;20082;-93
2023/12/15 12:36:40;;;;;;;2.80;0.73;;;;;;;8.81;59.66;100954.53;5307521;26;20071;-93
2023/12/15 12:39:06;;;;;;;1.52;0.95;;;;;;;8.51;59.64;100955.53;5307212;26;20060;-93
2023/12/15 12:41:34;;;;;;;3.45;1.87;;;;;;;8.65;59.66;100962.41;5307291;26;20649;-93
2023/12/15 12:44:02;;;;;;;0.20;0.20;;;;;;;8.58;59.65;100964.19;5307451;26;20125;-93
2023/12/15 12:46:27;;;;;;;2.05;0.75;;;;;;;8.61;59.65;100970.22;5289007;26;20064;-92
2023/12/15 12:49:05;;;;;;;0.00;0.00;;;;;;;8.58;59.65;100969.37;5307676;26;20068;-93
2023/12/15 12:51:33;;;;;;;0.47;0.47;;;;;;;8.79;59.66;100974.47;5290637;26;20692;-93
2023/12/15 12:54:02;;;;;;;0.98;0.85;;;;;;;8.79;59.66;100976.19;5307022;26;20060;-93
2023/12/15 12:56:55;;;;;;;0.25;0.25;;;;;;;8.78;59.67;100990.03;5307151;26;20060;-94
2023/12/15 12:59:24;;;;;;;0.10;0.10;;;;;;;8.67;59.66;100990.06;5318386;26;20048;-95
2023/12/15 13:02:05;;;;;;;0.28;0.28;;;;;;;8.68;59.66;100991.81;5330523;26;20032;-92
2023/12/15 13:05:01;;;;;;;;;;;;;;;;;;;;;
2023/12/15 13:08:08;;;;;;;1.27;1.23;;;;;;;8.99;59.67;101007.22;5310566;26;35641;-93
2023/12/15 13:10:33;;;;;;;0.85;0.82;;;;;;;9.06;59.68;101004.59;5326277;26;20048;-93
2023/12/15 13:12:59;;;;;;;3.90;2.05;;;;;;;8.94;59.67;101009.84;5307860;26;20162;-94
2023/12/15 13:15:24;;;;;;;1.40;1.05;;;;;;;8.85;59.67;101018.56;5307846;26;20060;-92
2023/12/15 13:17:53;;;;;;;0.62;0.62;;;;;;;8.71;59.66;101027.25;5307590;26;20092;-91
2023/12/15 13:20:23;;;;;;;2.08;0.65;;;;;;;8.65;59.65;101035.94;5308204;26;20408;-92
2023/12/15 13:22:50;;;;;;;1.17;0.85;;;;;;;8.65;59.66;101027.28;5306990;26;20064;-92
2023/12/15 13:25:15;;;;;;;4.57;0.75;;;;;;;8.48;59.64;101037.72;5307528;26;20110;-93
2023/12/15 13:27:41;;;;;;;0.55;0.47;;;;;;;8.33;59.64;101041.22;5307662;26;20071;-93
2023/12/15 13:30:10;;;;;;;3.75;0.55;;;;;;;8.48;59.65;101048.09;5307494;26;20048;-93
2023/12/15 13:32:35;;;;;;;0.00;0.00;;;;;;;8.43;59.64;101042.06;5289351;26;20068;-93
2023/12/15 13:38:31;;;;;;;0.00;0.00;;;;;;;8.50;59.65;101052.41;5345376;26;20107;-92
2023/12/15 13:40:57;;;;;;;0.25;0.25;;;;;;;8.31;59.64;101058.50;5290604;26;20052;-93
2023/12/15 13:43:24;;;;;;;3.40;0.80;;;;;;;8.20;59.63;101074.06;5307432;26;20075;-93
2023/12/15 13:45:55;;;;;;;0.93;0.80;;;;;;;8.04;59.62;101071.47;5308022;26;20068;-93
2023/12/15 13:48:21;;;;;;;0.40;0.40;;;;;;;7.94;59.62;101078.41;5289462;26;20035;-92
2023/12/15 13:50:46;;;;;;;0.35;0.35;;;;;;;7.94;59.62;101083.59;5307983;26;20053;-92
2023/12/15 13:53:12;;;;;;;0.60;0.55;;;;;;;7.85;59.62;101091.37;5307772;26;20109;-94
2023/12/15 13:55:41;;;;;;;0.40;0.30;;;;;;;7.76;59.61;101099.13;5307696;26;20079;-94
2023/12/15 13:58:06;;;;;;;1.10;0.40;;;;;;;7.69;59.61;101104.31;5308288;26;20068;-93
2023/12/15 14:00:32;;;;;;;0.22;0.22;;;;;;;7.84;59.60;101115.59;5307734;26;20378;-93
2023/12/15 14:02:58;;;;;;;0.30;0.30;;;;;;;7.67;59.60;101108.63;5325949;26;20361;-93
2023/12/15 14:05:24;;;;;;;2.08;1.40;;;;;;;7.73;59.61;101119.88;5309114;26;20063;-92
2023/12/15 14:07:50;;;;;;;0.57;0.57;;;;;;;7.74;59.61;101119.00;5327730;26;20110;-92
2023/12/15 14:10:15;;;;;;;0.20;0.20;;;;;;;7.68;59.60;101122.47;5307664;26;20068;-92
2023/12/15 14:12:46;;;;;;;1.75;0.85;;;;;;;7.56;59.60;101120.69;5307574;26;20078;-94
2023/12/15 14:15:16;;;;;;;0.00;0.00;;;;;;;7.48;59.60;101131.91;5307933;26;20417;-92
2023/12/15 14:17:42;;;;;;;0.00;0.00;;;;;;;7.55;59.60;101123.28;5307994;26;20067;-93
2023/12/15 14:20:09;;;;;;;0.13;0.13;;;;;;;7.36;59.59;101125.00;5326059;26;20313;-94
2023/12/15 14:22:35;;;;;;;0.28;0.28;;;;;;;7.54;59.59;101125.00;5289389;26;20114;-93
2023/12/15 14:25:04;;;;;;;1.65;0.55;;;;;;;7.50;59.60;101136.22;5307458;26;20060;-92
2023/12/15 14:27:30;;;;;;;0.03;0.03;;;;;;;7.44;59.59;101138.81;5308172;26;20092;-92
2023/12/15 14:29:56;;;;;;;0.95;0.85;;;;;;;7.49;59.59;101147.47;5288962;26;20060;-94
2023/12/15 14:33:00;;;;;;;0.15;0.15;;;;;;;7.49;59.59;101149.19;5307122;26;20377;-93
2023/12/15 14:35:26;;;;;;;0.75;0.47;;;;;;;7.36;59.59;101148.28;5255148;27;20069;-93
2023/12/15 14:37:52;;;;;;;0.28;0.28;;;;;;;7.36;59.59;101148.28;5202155;27;20057;-92
2023/12/15 14:40:17;;;;;;;0.00;0.00;;;;;;;7.35;59.59;101154.34;5243215;26;20100;-92
2023/12/15 14:42:46;;;;;;;0.40;0.28;;;;;;;7.14;59.57;101167.19;5307153;26;20417;-92
2023/12/15 14:45:11;;;;;;;0.00;0.00;;;;;;;7.13;59.57;101168.91;5307759;26;20139;-91
2023/12/15 14:47:37;;;;;;;1.00;1.00;;;;;;;7.14;59.57;101183.59;5307031;26;20105;-94
2023/12/15 14:50:03;;;;;;;0.62;0.62;;;;;;;7.00;59.57;101177.47;5307308;26;20347;-90
2023/12/15 14:52:28;;;;;;;0.10;0.10;;;;;;;6.81;59.55;101184.25;5325100;26;20069;-93
2023/12/15 14:54:54;;;;;;;0.35;0.35;;;;;;;6.97;59.57;101188.69;5306699;26;20350;-93
2023/12/15 14:57:19;;;;;;;0.05;0.05;;;;;;;6.61;59.54;101201.38;5325170;26;20064;-91
2023/12/15 14:59:45;;;;;;;1.95;0.52;;;;;;;6.81;59.56;101201.50;5325214;26;20124;-93
2023/12/15 15:02:10;;;;;;;2.85;1.08;;;;;;;6.68;59.55;101210.94;5306821;26;20112;-92
2023/12/15 15:04:36;;;;;;;0.62;0.62;;;;;;;6.58;59.55;101215.16;5307676;26;20051;-92
2023/12/15 15:07:03;;;;;;;1.08;0.90;;;;;;;6.56;59.54;101224.63;5307062;26;20314;-92
2023/12/15 15:09:28;;;;;;;0.00;0.00;;;;;;;6.49;59.53;101211.62;5308145;26;20106;-92
2023/12/15 15:11:54;;;;;;;6.78;1.30;;;;;;;6.24;59.52;101229.53;5307905;26;20402;-92
2023/12/15 15:14:19;;;;;;;0.37;0.37;;;;;;;6.25;59.52;101233.84;5306279;26;20120;-93
2023/12/15 15:16:45;;;;;;;0.47;0.47;;;;;;;6.29;59.53;101235.59;5306198;26;20080;-92
2023/12/15 15:19:10;;;;;;;0.00;0.00;;;;;;;6.33;59.52;101244.25;5287888;26;20052;-92
2023/12/15 15:21:35;;;;;;;0.00;0.00;;;;;;;6.37;59.53;101241.69;5305403;26;20497;-92
2023/12/15 15:24:01;;;;;;;1.10;1.00;;;;;;;6.43;59.54;101246.94;5305982;26;20113;-92
2023/12/15 15:26:30;;;;;;;0.08;0.08;;;;;;;6.50;59.53;101241.81;5306040;26;20365;-92
2023/12/15 15:28:56;;;;;;;0.03;0.03;;;;;;;6.49;59.53;101251.31;5306404;26;20049;-92
2023/12/15 15:31:21;;;;;;;0.05;0.05;;;;;;;6.42;59.52;101258.16;5287324;26;20086;-93
2023/12/15 15:33:49;;;;;;;0.00;0.00;;;;;;;6.36;59.54;101259.78;5305354;26;20325;-92
2023/12/15 15:36:14;;;;;;;0.13;0.13;;;;;;;6.47;59.53;101260.78;5305693;26;20060;-91
2023/12/15 15:38:40;;;;;;;0.00;0.00;;;;;;;6.50;59.53;101267.69;5305724;26;20337;-92
2023/12/15 15:41:06;;;;;;;1.23;0.45;;;;;;;6.41;59.53;101278.81;5305451;26;20076;-92
2023/12/15 15:43:34;;;;;;;0.00;0.00;;;;;;;6.47;59.54;101277.16;5305801;26;20115;-90
2023/12/15 15:46:03;;;;;;;0.08;0.08;;;;;;;6.30;59.53;101276.12;5305530;26;20413;-92
2023/12/15 15:48:28;;;;;;;0.00;0.00;;;;;;;6.13;59.52;101273.34;5305713;26;20113;-92
2023/12/15 15:50:54;;;;;;;0.30;0.30;;;;;;;6.00;59.51;101281.84;5305506;26;20072;-93
2023/12/15 15:53:22;;;;;;;0.32;0.32;;;;;;;5.86;59.50;101275.59;5287242;26;20113;-92
2023/12/15 15:55:48;;;;;;;0.40;0.40;;;;;;;5.80;59.50;101279.00;5324006;26;20052;-90
2023/12/15 15:58:13;;;;;;;0.88;0.88;;;;;;;5.75;59.49;101285.84;5288550;26;20127;-92
2023/12/15 16:00:39;;;;;;;0.25;0.25;;;;;;;5.74;59.49;101288.41;5306369;26;20588;-93
2023/12/15 16:03:04;;;;;;;0.20;0.20;;;;;;;5.52;59.48;101295.00;5306065;26;20065;-90
2023/12/15 16:05:33;;;;;;;1.33;1.10;;;;;;;5.39;59.48;101306.00;5305863;26;20124;-91